createdAt,value
2017-03-07T00:00:59.525Z,0
2017-03-07T00:02:12.571Z,0
2017-03-07T00:03:24.870Z,0
2017-03-07T00:04:37.963Z,0
2017-03-07T00:05:51.084Z,0
2017-03-07T00:07:04.403Z,0
2017-03-07T00:08:17.530Z,0
2017-03-07T00:09:30.227Z,0
2017-03-07T00:10:43.296Z,0
2017-03-07T00:11:56.392Z,0
2017-03-07T00:13:09.487Z,0
2017-03-07T00:14:21.737Z,0
2017-03-07T00:15:34.831Z,0
2017-03-07T00:16:47.876Z,0
2017-03-07T00:18:00.577Z,0
2017-03-07T00:19:13.663Z,0
2017-03-07T00:20:26.334Z,0
2017-03-07T00:21:39.409Z,0
2017-03-07T00:22:52.428Z,0
2017-03-07T00:24:05.523Z,0
2017-03-07T00:25:18.192Z,0
2017-03-07T00:26:31.295Z,0
2017-03-07T00:27:44.360Z,0
2017-03-07T00:28:57.401Z,0
2017-03-07T00:30:10.479Z,0
2017-03-07T00:31:23.538Z,0
2017-03-07T00:32:36.221Z,0
2017-03-07T00:33:48.491Z,0
2017-03-07T00:35:01.563Z,0
2017-03-07T00:36:14.232Z,0
2017-03-07T00:37:26.872Z,0
2017-03-07T00:38:39.973Z,0
2017-03-07T00:39:53.272Z,0
2017-03-07T00:41:06.313Z,0
2017-03-07T00:42:18.988Z,0
2017-03-07T00:43:31.685Z,0
2017-03-07T00:44:44.748Z,0
2017-03-07T00:45:57.824Z,0
2017-03-07T00:47:10.875Z,0
2017-03-07T00:48:23.965Z,0
2017-03-07T00:49:37.013Z,0
2017-03-07T00:50:50.081Z,0
2017-03-07T00:52:03.159Z,0
2017-03-07T00:53:16.251Z,0
2017-03-07T00:54:29.273Z,0
2017-03-07T00:55:42.340Z,0
2017-03-07T00:56:55.404Z,0
2017-03-07T00:58:08.527Z,0
2017-03-07T00:59:21.630Z,0
2017-03-07T01:00:34.323Z,0
2017-03-07T01:01:47.373Z,0
2017-03-07T01:03:00.445Z,0
2017-03-07T01:04:13.465Z,0
2017-03-07T01:05:26.503Z,0
2017-03-07T01:06:39.548Z,0
2017-03-07T01:07:52.624Z,0
2017-03-07T01:09:05.347Z,0
2017-03-07T01:10:18.408Z,0
2017-03-07T01:11:31.070Z,0
2017-03-07T01:12:43.808Z,0
2017-03-07T01:13:56.849Z,0
2017-03-07T01:15:09.917Z,0
2017-03-07T01:16:22.945Z,0
2017-03-07T01:17:35.616Z,0
2017-03-07T01:18:48.655Z,0
2017-03-07T01:20:01.708Z,0
2017-03-07T01:21:14.945Z,0
2017-03-07T01:22:28.048Z,0
2017-03-07T01:23:40.745Z,0
2017-03-07T01:24:53.787Z,0
2017-03-07T01:26:06.840Z,0
2017-03-07T01:27:19.900Z,0
2017-03-07T01:28:33.185Z,0
2017-03-07T01:29:46.266Z,0
2017-03-07T01:30:58.941Z,0
2017-03-07T01:32:11.996Z,0
2017-03-07T01:33:25.087Z,0
2017-03-07T01:34:38.137Z,0
2017-03-07T01:35:51.181Z,0
2017-03-07T01:37:04.279Z,0
2017-03-07T01:38:17.399Z,0
2017-03-07T01:39:30.474Z,0
2017-03-07T01:40:43.516Z,0
2017-03-07T01:41:56.564Z,0
2017-03-07T01:43:09.606Z,0
2017-03-07T01:44:22.642Z,0
2017-03-07T01:45:35.696Z,0
2017-03-07T01:46:48.759Z,0
2017-03-07T01:48:01.839Z,0
2017-03-07T01:49:14.914Z,0
2017-03-07T01:50:27.599Z,0
2017-03-07T01:51:40.270Z,0
2017-03-07T01:52:53.371Z,0
2017-03-07T01:54:06.470Z,0
2017-03-07T01:55:19.530Z,0
2017-03-07T01:56:32.587Z,0
2017-03-07T01:57:45.630Z,0
2017-03-07T01:58:58.656Z,0
2017-03-07T02:00:11.702Z,0
2017-03-07T02:01:24.822Z,0
2017-03-07T02:02:37.893Z,0
2017-03-07T02:03:50.587Z,0
2017-03-07T02:05:03.633Z,0
2017-03-07T02:06:16.693Z,0
2017-03-07T02:07:29.751Z,0
2017-03-07T02:08:42.835Z,0
2017-03-07T02:09:55.906Z,0
2017-03-07T02:11:08.992Z,0
2017-03-07T02:12:22.060Z,0
2017-03-07T02:13:35.172Z,0
2017-03-07T02:14:48.190Z,0
2017-03-07T02:16:01.240Z,0
2017-03-07T02:17:14.592Z,0
2017-03-07T02:18:27.691Z,0
2017-03-07T02:19:40.755Z,0
2017-03-07T02:20:53.821Z,0
2017-03-07T02:22:06.901Z,0
2017-03-07T02:23:19.998Z,0
2017-03-07T02:24:33.041Z,0
2017-03-07T02:25:46.114Z,0
2017-03-07T02:26:59.219Z,0
2017-03-07T02:28:12.328Z,0
2017-03-07T02:29:25.440Z,0
2017-03-07T02:30:38.498Z,0
2017-03-07T02:31:51.565Z,0
2017-03-07T02:33:04.616Z,0
2017-03-07T02:34:17.689Z,0
2017-03-07T02:35:30.775Z,0
2017-03-07T02:36:43.881Z,0
2017-03-07T02:37:56.947Z,0
2017-03-07T02:39:09.992Z,0
2017-03-07T02:40:23.056Z,0
2017-03-07T02:41:35.731Z,0
2017-03-07T02:42:48.395Z,0
2017-03-07T02:44:01.441Z,0
2017-03-07T02:45:14.486Z,0
2017-03-07T02:46:27.569Z,0
2017-03-07T02:47:40.638Z,0
2017-03-07T02:48:53.702Z,0
2017-03-07T02:50:06.806Z,0
2017-03-07T02:51:19.503Z,0
2017-03-07T02:52:32.594Z,0
2017-03-07T02:53:45.633Z,0
2017-03-07T02:54:58.292Z,0
2017-03-07T02:56:10.957Z,0
2017-03-07T02:57:24.035Z,0
2017-03-07T02:58:37.103Z,0
2017-03-07T02:59:50.187Z,0
2017-03-07T03:01:03.233Z,0
2017-03-07T03:02:16.279Z,0
2017-03-07T03:03:29.333Z,0
2017-03-07T03:04:42.424Z,0
2017-03-07T03:05:55.467Z,0
2017-03-07T03:07:08.122Z,0
2017-03-07T03:08:21.171Z,0
2017-03-07T03:09:33.862Z,0
2017-03-07T03:10:46.908Z,0
2017-03-07T03:12:00.007Z,0
2017-03-07T03:13:13.096Z,0
2017-03-07T03:14:26.163Z,0
2017-03-07T03:15:39.247Z,0
2017-03-07T03:16:52.306Z,0
2017-03-07T03:18:05.003Z,0
2017-03-07T03:19:17.703Z,0
2017-03-07T03:20:30.392Z,0
2017-03-07T03:21:43.446Z,0
2017-03-07T03:22:56.496Z,0
2017-03-07T03:24:08.792Z,0
2017-03-07T03:25:21.879Z,0
2017-03-07T03:26:34.946Z,0
2017-03-07T03:27:48.020Z,0
2017-03-07T03:29:00.700Z,0
2017-03-07T03:30:13.433Z,0
2017-03-07T03:31:26.492Z,0
2017-03-07T03:32:39.154Z,0
2017-03-07T03:33:52.204Z,0
2017-03-07T03:35:05.278Z,0
2017-03-07T03:36:18.350Z,0
2017-03-07T03:37:31.388Z,0
2017-03-07T03:38:44.133Z,0
2017-03-07T03:39:57.176Z,0
2017-03-07T03:41:10.234Z,0
2017-03-07T03:42:23.296Z,0
2017-03-07T03:43:35.968Z,0
2017-03-07T03:44:49.050Z,0
2017-03-07T03:46:02.093Z,0
2017-03-07T03:47:15.161Z,0
2017-03-07T03:48:28.234Z,0
2017-03-07T03:49:41.293Z,0
2017-03-07T03:50:54.350Z,0
2017-03-07T03:52:07.410Z,0
2017-03-07T03:53:20.442Z,0
2017-03-07T03:54:33.138Z,0
2017-03-07T03:55:46.176Z,0
2017-03-07T03:56:59.258Z,0
2017-03-07T03:58:12.378Z,0
2017-03-07T03:59:24.670Z,0
2017-03-07T04:00:37.366Z,0
2017-03-07T04:01:50.031Z,0
2017-03-07T04:03:03.113Z,0
2017-03-07T04:04:16.205Z,0
2017-03-07T04:05:28.927Z,0
2017-03-07T04:06:42.040Z,0
2017-03-07T04:07:55.114Z,0
2017-03-07T04:09:08.185Z,0
2017-03-07T04:10:21.252Z,0
2017-03-07T04:11:33.956Z,0
2017-03-07T04:12:46.640Z,0
2017-03-07T04:13:59.695Z,0
2017-03-07T04:15:12.810Z,0
2017-03-07T04:16:25.891Z,0
2017-03-07T04:17:38.957Z,0
2017-03-07T04:18:51.998Z,0
2017-03-07T04:20:04.673Z,0
2017-03-07T04:21:17.386Z,0
2017-03-07T04:22:30.086Z,0
2017-03-07T04:23:43.161Z,0
2017-03-07T04:24:56.252Z,0
2017-03-07T04:26:09.323Z,0
2017-03-07T04:27:22.019Z,0
2017-03-07T04:28:35.097Z,0
2017-03-07T04:29:48.160Z,0
2017-03-07T04:31:01.264Z,0
2017-03-07T04:32:14.349Z,0
2017-03-07T04:33:27.403Z,0
2017-03-07T04:34:40.476Z,0
2017-03-07T04:35:53.527Z,0
2017-03-07T04:37:06.611Z,0
2017-03-07T04:38:19.704Z,0
2017-03-07T04:39:32.778Z,0
2017-03-07T04:40:45.849Z,0
2017-03-07T04:41:58.915Z,0
2017-03-07T04:43:11.617Z,0
2017-03-07T04:44:24.692Z,0
2017-03-07T04:45:37.365Z,0
2017-03-07T04:46:50.432Z,0
2017-03-07T04:48:03.499Z,0
2017-03-07T04:49:16.541Z,0
2017-03-07T04:50:29.562Z,0
2017-03-07T04:51:42.612Z,0
2017-03-07T04:52:55.704Z,0
2017-03-07T04:54:08.382Z,0
2017-03-07T04:55:21.674Z,0
2017-03-07T04:56:34.753Z,0
2017-03-07T04:57:47.820Z,0
2017-03-07T04:59:00.884Z,0
2017-03-07T05:00:13.566Z,0
2017-03-07T05:01:26.632Z,0
2017-03-07T05:02:39.671Z,0
2017-03-07T05:03:52.725Z,0
2017-03-07T05:05:05.373Z,0
2017-03-07T05:06:18.445Z,0
2017-03-07T05:07:31.516Z,0
2017-03-07T05:08:44.554Z,0
2017-03-07T05:09:57.607Z,0
2017-03-07T05:11:10.677Z,0
2017-03-07T05:12:23.743Z,0
2017-03-07T05:13:36.048Z,0
2017-03-07T05:14:49.108Z,0
2017-03-07T05:16:02.153Z,0
2017-03-07T05:17:15.257Z,0
2017-03-07T05:18:27.949Z,0
2017-03-07T05:19:40.621Z,0
2017-03-07T05:20:53.658Z,0
2017-03-07T05:22:06.784Z,0
2017-03-07T05:23:19.876Z,0
2017-03-07T05:24:32.572Z,0
2017-03-07T05:25:45.620Z,0
2017-03-07T05:26:58.700Z,0
2017-03-07T05:28:11.634Z,0
2017-03-07T05:29:24.706Z,0
2017-03-07T05:30:37.380Z,0
2017-03-07T05:31:50.459Z,0
2017-03-07T05:33:03.550Z,0
2017-03-07T05:34:16.589Z,0
2017-03-07T05:35:29.246Z,0
2017-03-07T05:36:42.313Z,0
2017-03-07T05:37:55.359Z,0
2017-03-07T05:39:08.405Z,0
2017-03-07T05:40:21.451Z,0
2017-03-07T05:41:34.526Z,0
2017-03-07T05:42:47.625Z,0
2017-03-07T05:44:00.939Z,5
2017-03-07T05:45:14.039Z,5
2017-03-07T05:46:27.076Z,5
2017-03-07T05:47:40.182Z,5
2017-03-07T05:48:53.299Z,5
2017-03-07T05:50:06.395Z,5
2017-03-07T05:51:19.043Z,5
2017-03-07T05:52:31.768Z,5
2017-03-07T05:53:44.883Z,5
2017-03-07T05:54:57.922Z,5
2017-03-07T05:56:10.972Z,5
2017-03-07T05:57:24.023Z,5
2017-03-07T05:58:36.705Z,5
2017-03-07T05:59:49.413Z,10
2017-03-07T06:01:02.504Z,10
2017-03-07T06:02:15.227Z,10
2017-03-07T06:03:28.271Z,10
2017-03-07T06:04:40.939Z,15
2017-03-07T06:05:54.016Z,15
2017-03-07T06:07:06.703Z,15
2017-03-07T06:08:19.752Z,15
2017-03-07T06:09:32.802Z,15
2017-03-07T06:10:45.868Z,20
2017-03-07T06:11:59.179Z,15
2017-03-07T06:13:12.243Z,15
2017-03-07T06:14:24.980Z,15
2017-03-07T06:15:38.033Z,20
2017-03-07T06:16:51.073Z,20
2017-03-07T06:18:04.102Z,20
2017-03-07T06:19:17.147Z,20
2017-03-07T06:20:29.818Z,20
2017-03-07T06:21:42.863Z,20
2017-03-07T06:22:55.923Z,20
2017-03-07T06:24:08.978Z,20
2017-03-07T06:25:22.077Z,25
2017-03-07T06:26:35.098Z,40
2017-03-07T06:27:48.156Z,40
2017-03-07T06:29:01.202Z,65
2017-03-07T06:30:13.925Z,60
2017-03-07T06:31:26.676Z,55
2017-03-07T06:32:39.352Z,45
2017-03-07T06:33:52.417Z,35
2017-03-07T06:35:05.482Z,45
2017-03-07T06:36:17.753Z,60
2017-03-07T06:37:30.413Z,60
2017-03-07T06:38:43.096Z,55
2017-03-07T06:39:56.145Z,50
2017-03-07T06:41:09.240Z,65
2017-03-07T06:42:22.319Z,55
2017-03-07T06:43:35.014Z,50
2017-03-07T06:44:48.088Z,50
2017-03-07T06:46:01.156Z,50
2017-03-07T06:47:14.301Z,55
2017-03-07T06:48:27.379Z,60
2017-03-07T06:49:40.468Z,45
2017-03-07T06:50:53.504Z,55
2017-03-07T06:52:06.600Z,55
2017-03-07T06:53:19.279Z,60
2017-03-07T06:54:32.377Z,55
2017-03-07T06:55:45.045Z,60
2017-03-07T06:56:58.087Z,60
2017-03-07T06:58:11.166Z,45
2017-03-07T06:59:24.229Z,45
2017-03-07T07:00:36.925Z,50
2017-03-07T07:01:49.617Z,115
2017-03-07T07:03:02.670Z,175
2017-03-07T07:04:15.736Z,165
2017-03-07T07:05:28.841Z,175
2017-03-07T07:06:41.151Z,165
2017-03-07T07:07:54.226Z,165
2017-03-07T07:09:07.303Z,165
2017-03-07T07:10:20.366Z,175
2017-03-07T07:11:33.440Z,175
2017-03-07T07:12:46.515Z,145
2017-03-07T07:13:59.582Z,110
2017-03-07T07:15:12.632Z,80
2017-03-07T07:16:25.680Z,80
2017-03-07T07:17:37.971Z,75
2017-03-07T07:18:51.016Z,70
2017-03-07T07:20:04.092Z,70
2017-03-07T07:21:17.158Z,115
2017-03-07T07:22:30.500Z,165
2017-03-07T07:23:43.543Z,240
2017-03-07T07:24:55.820Z,175
2017-03-07T07:26:08.491Z,120
2017-03-07T07:27:21.588Z,120
2017-03-07T07:28:34.686Z,110
2017-03-07T07:29:47.347Z,110
2017-03-07T07:31:00.395Z,100
2017-03-07T07:32:13.474Z,120
2017-03-07T07:33:26.188Z,140
2017-03-07T07:34:39.271Z,150
2017-03-07T07:35:51.934Z,190
2017-03-07T07:37:04.976Z,230
2017-03-07T07:38:17.678Z,235
2017-03-07T07:39:30.375Z,220
2017-03-07T07:40:43.442Z,220
2017-03-07T07:41:56.480Z,195
2017-03-07T07:43:09.587Z,150
2017-03-07T07:44:22.724Z,155
2017-03-07T07:45:35.053Z,205
2017-03-07T07:46:48.114Z,155
2017-03-07T07:48:01.184Z,125
2017-03-07T07:49:14.284Z,145
2017-03-07T07:50:27.009Z,145
2017-03-07T07:51:40.082Z,135
2017-03-07T07:52:52.726Z,145
2017-03-07T07:54:05.400Z,140
2017-03-07T07:55:18.109Z,145
2017-03-07T07:56:31.170Z,145
2017-03-07T07:57:44.230Z,150
2017-03-07T07:58:57.298Z,155
2017-03-07T08:00:10.022Z,150
2017-03-07T08:01:23.115Z,150
2017-03-07T08:02:36.187Z,150
2017-03-07T08:03:48.883Z,145
2017-03-07T08:05:01.988Z,155
2017-03-07T08:06:15.052Z,160
2017-03-07T08:07:27.717Z,170
2017-03-07T08:08:40.389Z,190
2017-03-07T08:09:53.450Z,210
2017-03-07T08:11:06.564Z,210
2017-03-07T08:12:19.655Z,180
2017-03-07T08:13:32.760Z,190
2017-03-07T08:14:45.430Z,200
2017-03-07T08:15:58.490Z,210
2017-03-07T08:17:10.762Z,235
2017-03-07T08:18:23.843Z,265
2017-03-07T08:19:36.515Z,250
2017-03-07T08:20:49.578Z,245
2017-03-07T08:22:02.281Z,230
2017-03-07T08:23:15.415Z,210
2017-03-07T08:24:28.486Z,210
2017-03-07T08:25:41.135Z,210
2017-03-07T08:26:54.228Z,220
2017-03-07T08:28:07.281Z,235
2017-03-07T08:29:20.334Z,225
2017-03-07T08:30:33.443Z,205
2017-03-07T08:31:46.494Z,190
2017-03-07T08:32:59.194Z,195
2017-03-07T08:34:12.256Z,195
2017-03-07T08:35:25.338Z,185
2017-03-07T08:36:38.399Z,180
2017-03-07T08:37:51.448Z,180
2017-03-07T08:39:03.773Z,175
2017-03-07T08:40:16.464Z,195
2017-03-07T08:41:29.539Z,210
2017-03-07T08:42:42.226Z,230
2017-03-07T08:43:54.920Z,270
2017-03-07T08:45:08.002Z,330
2017-03-07T08:46:21.047Z,345
2017-03-07T08:47:34.107Z,375
2017-03-07T08:48:47.179Z,440
2017-03-07T08:50:00.235Z,430
2017-03-07T08:51:13.331Z,360
2017-03-07T08:52:26.028Z,390
2017-03-07T08:53:38.721Z,415
2017-03-07T08:54:51.445Z,425
2017-03-07T08:56:04.486Z,480
2017-03-07T08:57:17.137Z,525
2017-03-07T08:58:30.245Z,525
2017-03-07T08:59:43.301Z,505
2017-03-07T09:00:56.344Z,515
2017-03-07T09:02:09.018Z,505
2017-03-07T09:03:22.079Z,510
2017-03-07T09:04:35.161Z,520
2017-03-07T09:05:48.224Z,525
2017-03-07T09:07:01.277Z,485
2017-03-07T09:08:14.347Z,430
2017-03-07T09:09:27.020Z,500
2017-03-07T09:10:40.108Z,500
2017-03-07T09:11:53.202Z,480
2017-03-07T09:13:06.308Z,465
2017-03-07T09:14:19.395Z,550
2017-03-07T09:15:32.063Z,575
2017-03-07T09:16:44.717Z,555
2017-03-07T09:17:57.789Z,500
2017-03-07T09:19:10.864Z,505
2017-03-07T09:20:23.972Z,485
2017-03-07T09:21:37.024Z,460
2017-03-07T09:22:49.591Z,415
2017-03-07T09:24:02.667Z,395
2017-03-07T09:25:15.731Z,380
2017-03-07T09:26:28.827Z,350
2017-03-07T09:27:41.513Z,300
2017-03-07T09:28:54.629Z,275
2017-03-07T09:30:07.303Z,270
2017-03-07T09:31:20.351Z,260
2017-03-07T09:32:33.391Z,270
2017-03-07T09:33:46.462Z,260
2017-03-07T09:34:59.502Z,225
2017-03-07T09:36:12.151Z,215
2017-03-07T09:37:25.222Z,240
2017-03-07T09:38:38.273Z,265
2017-03-07T09:39:51.342Z,285
2017-03-07T09:41:04.431Z,380
2017-03-07T09:42:17.512Z,495
2017-03-07T09:43:30.579Z,525
2017-03-07T09:44:43.639Z,540
2017-03-07T09:45:56.692Z,590
2017-03-07T09:47:09.767Z,655
2017-03-07T09:48:22.857Z,650
2017-03-07T09:49:35.923Z,570
2017-03-07T09:50:49.023Z,530
2017-03-07T09:52:02.117Z,620
2017-03-07T09:53:15.185Z,635
2017-03-07T09:54:28.234Z,595
2017-03-07T09:55:41.302Z,550
2017-03-07T09:56:54.385Z,600
2017-03-07T09:58:07.501Z,715
2017-03-07T09:59:20.175Z,670
2017-03-07T10:00:33.268Z,505
2017-03-07T10:01:45.946Z,485
2017-03-07T10:02:59.017Z,430
2017-03-07T10:04:11.331Z,340
2017-03-07T10:05:24.402Z,250
2017-03-07T10:06:37.069Z,225
2017-03-07T10:07:50.147Z,225
2017-03-07T10:09:03.191Z,225
2017-03-07T10:10:16.290Z,230
2017-03-07T10:11:29.331Z,245
2017-03-07T10:12:42.022Z,265
2017-03-07T10:13:55.073Z,250
2017-03-07T10:15:08.122Z,260
2017-03-07T10:16:21.191Z,265
2017-03-07T10:17:34.492Z,255
2017-03-07T10:18:47.586Z,255
2017-03-07T10:20:00.657Z,235
2017-03-07T10:21:13.323Z,225
2017-03-07T10:22:25.994Z,230
2017-03-07T10:23:39.082Z,220
2017-03-07T10:24:51.778Z,200
2017-03-07T10:26:04.435Z,180
2017-03-07T10:27:17.503Z,185
2017-03-07T10:28:30.598Z,185
2017-03-07T10:29:43.647Z,180
2017-03-07T10:30:56.690Z,190
2017-03-07T10:32:09.390Z,205
2017-03-07T10:33:22.435Z,230
2017-03-07T10:34:35.523Z,255
2017-03-07T10:35:48.194Z,275
2017-03-07T10:37:01.263Z,270
2017-03-07T10:38:13.561Z,240
2017-03-07T10:39:26.607Z,265
2017-03-07T10:40:39.662Z,310
2017-03-07T10:41:52.708Z,325
2017-03-07T10:43:05.351Z,350
2017-03-07T10:44:18.424Z,365
2017-03-07T10:45:31.470Z,370
2017-03-07T10:46:44.567Z,340
2017-03-07T10:47:57.690Z,315
2017-03-07T10:49:10.797Z,320
2017-03-07T10:50:23.474Z,325
2017-03-07T10:51:36.552Z,330
2017-03-07T10:52:49.645Z,355
2017-03-07T10:54:02.715Z,345
2017-03-07T10:55:15.808Z,345
2017-03-07T10:56:28.854Z,340
2017-03-07T10:57:41.944Z,325
2017-03-07T10:58:55.023Z,315
2017-03-07T11:00:07.745Z,320
2017-03-07T11:01:20.818Z,320
2017-03-07T11:02:33.513Z,365
2017-03-07T11:03:46.579Z,415
2017-03-07T11:04:59.667Z,405
2017-03-07T11:06:12.349Z,375
2017-03-07T11:07:25.442Z,360
2017-03-07T11:08:38.492Z,360
2017-03-07T11:09:51.201Z,365
2017-03-07T11:11:04.271Z,380
2017-03-07T11:12:17.318Z,405
2017-03-07T11:13:30.413Z,425
2017-03-07T11:14:42.709Z,450
2017-03-07T11:15:55.805Z,475
2017-03-07T11:17:08.852Z,495
2017-03-07T11:18:21.532Z,500
2017-03-07T11:19:34.252Z,500
2017-03-07T11:20:47.296Z,505
2017-03-07T11:21:59.963Z,465
2017-03-07T11:23:13.013Z,415
2017-03-07T11:24:26.064Z,395
2017-03-07T11:25:39.106Z,380
2017-03-07T11:26:51.031Z,370
2017-03-07T11:28:04.150Z,355
2017-03-07T11:29:17.238Z,330
2017-03-07T11:30:30.334Z,310
2017-03-07T11:31:43.434Z,290
2017-03-07T11:32:56.485Z,270
2017-03-07T11:34:09.143Z,260
2017-03-07T11:35:22.200Z,255
2017-03-07T11:36:35.259Z,245
2017-03-07T11:37:47.993Z,240
2017-03-07T11:39:01.090Z,230
2017-03-07T11:40:14.184Z,225
2017-03-07T11:41:27.260Z,215
2017-03-07T11:42:40.343Z,205
2017-03-07T11:43:53.043Z,200
2017-03-07T11:45:06.118Z,195
2017-03-07T11:46:18.839Z,195
2017-03-07T11:47:31.523Z,190
2017-03-07T11:48:44.208Z,190
2017-03-07T11:49:57.353Z,200
2017-03-07T11:51:10.471Z,195
2017-03-07T11:52:23.567Z,190
2017-03-07T11:53:35.885Z,190
2017-03-07T11:54:48.227Z,190
2017-03-07T11:56:00.906Z,185
2017-03-07T11:57:13.973Z,185
2017-03-07T11:58:27.061Z,185
2017-03-07T11:59:40.115Z,180
2017-03-07T12:00:52.806Z,180
2017-03-07T12:02:05.909Z,180
2017-03-07T12:03:18.995Z,195
2017-03-07T12:04:32.054Z,205
2017-03-07T12:05:44.778Z,215
2017-03-07T12:06:57.843Z,235
2017-03-07T12:08:10.529Z,260
2017-03-07T12:09:23.606Z,275
2017-03-07T12:10:36.298Z,290
2017-03-07T12:11:49.001Z,290
2017-03-07T12:13:02.073Z,285
2017-03-07T12:14:15.140Z,290
2017-03-07T12:15:28.220Z,295
2017-03-07T12:16:40.860Z,290
2017-03-07T12:17:53.528Z,300
2017-03-07T12:19:06.599Z,300
2017-03-07T12:20:19.627Z,295
2017-03-07T12:21:32.687Z,295
2017-03-07T12:22:45.789Z,280
2017-03-07T12:23:58.911Z,280
2017-03-07T12:25:11.978Z,290
2017-03-07T12:26:25.051Z,285
2017-03-07T12:27:37.799Z,290
2017-03-07T12:28:50.837Z,295
2017-03-07T12:30:03.937Z,290
2017-03-07T12:31:16.587Z,275
2017-03-07T12:32:29.653Z,260
2017-03-07T12:33:42.353Z,255
2017-03-07T12:34:55.473Z,250
2017-03-07T12:36:08.522Z,255
2017-03-07T12:37:21.238Z,265
2017-03-07T12:38:33.900Z,260
2017-03-07T12:39:46.231Z,255
2017-03-07T12:40:59.299Z,265
2017-03-07T12:42:12.363Z,295
2017-03-07T12:43:25.409Z,325
2017-03-07T12:44:37.670Z,330
2017-03-07T12:45:49.958Z,325
2017-03-07T12:47:03.031Z,330
2017-03-07T12:48:15.342Z,325
2017-03-07T12:49:28.026Z,295
2017-03-07T12:50:41.120Z,245
2017-03-07T12:51:54.192Z,210
2017-03-07T12:53:07.333Z,190
2017-03-07T12:54:20.409Z,175
2017-03-07T12:55:33.453Z,175
2017-03-07T12:56:46.117Z,175
2017-03-07T12:57:58.774Z,185
2017-03-07T12:59:11.858Z,195
2017-03-07T13:00:24.964Z,215
2017-03-07T13:01:38.047Z,225
2017-03-07T13:02:51.079Z,235
2017-03-07T13:04:04.139Z,245
2017-03-07T13:05:17.220Z,250
2017-03-07T13:06:30.305Z,260
2017-03-07T13:07:43.409Z,260
2017-03-07T13:08:55.709Z,265
2017-03-07T13:10:08.418Z,275
2017-03-07T13:11:21.755Z,295
2017-03-07T13:12:34.885Z,325
2017-03-07T13:13:47.619Z,360
2017-03-07T13:15:00.406Z,380
2017-03-07T13:16:13.626Z,380
2017-03-07T13:17:26.375Z,360
2017-03-07T13:18:38.689Z,345
2017-03-07T13:19:51.768Z,320
2017-03-07T13:21:04.432Z,305
2017-03-07T13:22:17.151Z,305
2017-03-07T13:23:30.235Z,330
2017-03-07T13:24:42.954Z,355
2017-03-07T13:25:55.601Z,350
2017-03-07T13:27:08.320Z,325
2017-03-07T13:28:21.370Z,305
2017-03-07T13:29:34.460Z,275
2017-03-07T13:30:47.489Z,250
2017-03-07T13:32:00.180Z,230
2017-03-07T13:33:13.243Z,215
2017-03-07T13:34:26.348Z,205
2017-03-07T13:35:39.014Z,190
2017-03-07T13:36:51.714Z,180
2017-03-07T13:38:04.759Z,180
2017-03-07T13:39:17.902Z,180
2017-03-07T13:40:30.980Z,185
2017-03-07T13:41:43.644Z,190
2017-03-07T13:42:56.319Z,190
2017-03-07T13:44:09.386Z,180
2017-03-07T13:45:22.057Z,180
2017-03-07T13:46:34.724Z,175
2017-03-07T13:47:47.801Z,175
2017-03-07T13:49:00.897Z,180
2017-03-07T13:50:13.968Z,180
2017-03-07T13:51:26.641Z,185
2017-03-07T13:52:39.703Z,185
2017-03-07T13:53:52.822Z,190
2017-03-07T13:55:05.499Z,195
2017-03-07T13:56:18.624Z,205
2017-03-07T13:57:30.965Z,215
2017-03-07T13:58:43.268Z,215
2017-03-07T13:59:56.649Z,205
2017-03-07T14:01:09.678Z,210
2017-03-07T14:02:22.353Z,225
2017-03-07T14:03:35.389Z,240
2017-03-07T14:04:48.437Z,265
2017-03-07T14:06:01.516Z,300
2017-03-07T14:07:14.610Z,340
2017-03-07T14:08:27.678Z,395
2017-03-07T14:09:40.353Z,405
2017-03-07T14:10:53.424Z,405
2017-03-07T14:12:06.133Z,435
2017-03-07T14:13:18.841Z,440
2017-03-07T14:14:31.910Z,430
2017-03-07T14:15:43.850Z,405
2017-03-07T14:16:56.155Z,370
2017-03-07T14:18:08.839Z,345
2017-03-07T14:19:21.520Z,350
2017-03-07T14:20:34.588Z,355
2017-03-07T14:21:47.260Z,385
2017-03-07T14:22:59.925Z,420
2017-03-07T14:24:13.046Z,440
2017-03-07T14:25:25.751Z,445
2017-03-07T14:26:38.787Z,425
2017-03-07T14:27:51.046Z,385
2017-03-07T14:29:03.788Z,360
2017-03-07T14:30:16.879Z,345
2017-03-07T14:31:29.518Z,355
2017-03-07T14:32:42.838Z,360
2017-03-07T14:33:55.927Z,335
2017-03-07T14:35:08.634Z,320
2017-03-07T14:36:21.708Z,330
2017-03-07T14:37:35.009Z,345
2017-03-07T14:38:48.096Z,335
2017-03-07T14:40:00.821Z,350
2017-03-07T14:41:13.521Z,345
2017-03-07T14:42:26.580Z,320
2017-03-07T14:43:38.878Z,305
2017-03-07T14:44:51.951Z,300
2017-03-07T14:46:05.029Z,295
2017-03-07T14:47:18.101Z,305
2017-03-07T14:48:30.801Z,290
2017-03-07T14:49:43.489Z,260
2017-03-07T14:50:56.568Z,250
2017-03-07T14:52:08.544Z,255
2017-03-07T14:53:21.618Z,250
2017-03-07T14:54:34.725Z,245
2017-03-07T14:55:47.824Z,230
2017-03-07T14:57:00.149Z,220
2017-03-07T14:58:13.288Z,215
2017-03-07T14:59:25.976Z,215
2017-03-07T15:00:38.675Z,210
2017-03-07T15:01:51.351Z,205
2017-03-07T15:03:04.036Z,195
2017-03-07T15:04:17.110Z,190
2017-03-07T15:05:29.767Z,180
2017-03-07T15:06:42.804Z,175
2017-03-07T15:07:55.082Z,175
2017-03-07T15:09:08.140Z,165
2017-03-07T15:10:20.797Z,140
2017-03-07T15:11:33.465Z,115
2017-03-07T15:12:46.532Z,105
2017-03-07T15:13:59.251Z,100
2017-03-07T15:15:11.926Z,105
2017-03-07T15:16:24.251Z,125
2017-03-07T15:17:35.397Z,145
2017-03-07T15:18:48.511Z,140
2017-03-07T15:20:01.664Z,140
2017-03-07T15:21:14.784Z,135
2017-03-07T15:22:27.471Z,145
2017-03-07T15:23:40.527Z,135
2017-03-07T15:24:52.839Z,120
2017-03-07T15:26:05.868Z,115
2017-03-07T15:27:18.973Z,140
2017-03-07T15:28:32.053Z,165
2017-03-07T15:29:44.362Z,185
2017-03-07T15:30:57.073Z,195
2017-03-07T15:32:10.145Z,195
2017-03-07T15:33:22.835Z,185
2017-03-07T15:34:35.515Z,180
2017-03-07T15:35:48.574Z,160
2017-03-07T15:37:00.846Z,145
2017-03-07T15:38:13.916Z,125
2017-03-07T15:39:26.596Z,115
2017-03-07T15:40:38.509Z,110
2017-03-07T15:41:51.586Z,105
2017-03-07T15:43:04.686Z,105
2017-03-07T15:44:17.384Z,100
2017-03-07T15:45:30.442Z,95
2017-03-07T15:46:42.723Z,95
2017-03-07T15:47:55.416Z,95
2017-03-07T15:49:08.508Z,90
2017-03-07T15:50:21.561Z,95
2017-03-07T15:51:34.659Z,95
2017-03-07T15:52:47.733Z,95
2017-03-07T15:54:00.799Z,90
2017-03-07T15:55:13.474Z,90
2017-03-07T15:56:26.138Z,85
2017-03-07T15:57:39.185Z,85
2017-03-07T15:58:51.455Z,85
2017-03-07T16:00:04.557Z,85
2017-03-07T16:01:16.475Z,80
2017-03-07T16:02:29.547Z,75
2017-03-07T16:03:42.638Z,70
2017-03-07T16:04:55.326Z,70
2017-03-07T16:06:07.630Z,60
2017-03-07T16:07:20.703Z,55
2017-03-07T16:08:33.771Z,45
2017-03-07T16:09:46.870Z,35
2017-03-07T16:11:00.022Z,35
2017-03-07T16:12:12.715Z,35
2017-03-07T16:13:25.376Z,30
2017-03-07T16:14:38.478Z,30
2017-03-07T16:15:50.814Z,25
2017-03-07T16:17:03.867Z,25
2017-03-07T16:18:16.584Z,25
2017-03-07T16:19:29.266Z,25
2017-03-07T16:21:39.607Z,20
2017-03-07T16:22:52.774Z,25
2017-03-07T16:24:05.847Z,25
2017-03-07T16:25:18.915Z,20
2017-03-07T16:26:31.613Z,20
2017-03-07T16:27:44.675Z,20
2017-03-07T16:28:57.756Z,15
2017-03-07T16:30:10.427Z,15
2017-03-07T16:31:23.470Z,15
2017-03-07T16:32:36.620Z,15
2017-03-07T16:33:49.687Z,15
2017-03-07T16:35:02.736Z,15
2017-03-07T16:36:15.434Z,10
2017-03-07T16:37:28.520Z,10
2017-03-07T16:38:41.844Z,10
2017-03-07T16:39:54.892Z,10
2017-03-07T16:41:07.982Z,10
2017-03-07T16:42:21.062Z,10
2017-03-07T16:43:33.781Z,10
2017-03-07T16:44:46.876Z,5
2017-03-07T16:45:59.991Z,5
2017-03-07T16:47:13.058Z,5
2017-03-07T16:48:25.736Z,5
2017-03-07T16:49:38.806Z,5
2017-03-07T16:50:51.881Z,5
2017-03-07T16:52:04.947Z,5
2017-03-07T16:53:17.987Z,5
2017-03-07T16:54:30.658Z,5
2017-03-07T16:55:42.943Z,0
2017-03-07T16:56:56.028Z,0
2017-03-07T16:58:09.110Z,0
2017-03-07T16:59:22.151Z,0
2017-03-07T17:00:34.849Z,0
2017-03-07T17:01:47.918Z,0
2017-03-07T17:03:00.991Z,0
2017-03-07T17:04:14.085Z,0
2017-03-07T17:05:27.156Z,0
2017-03-07T17:06:39.852Z,0
2017-03-07T17:07:52.947Z,0
2017-03-07T17:09:06.008Z,0
2017-03-07T17:10:18.704Z,0
2017-03-07T17:11:31.784Z,0
2017-03-07T17:12:44.833Z,0
2017-03-07T17:13:57.520Z,0
2017-03-07T17:15:10.648Z,0
2017-03-07T17:16:23.693Z,0